createdAt,value
2018-08-12T00:00:28.138Z,99.96
2018-08-12T00:01:28.165Z,97.85
2018-08-12T00:02:28.184Z,99.99
2018-08-12T00:03:28.210Z,99.99
2018-08-12T00:04:28.236Z,97.28
2018-08-12T00:05:28.251Z,96.13
2018-08-12T00:06:28.273Z,98.14
2018-08-12T00:07:28.300Z,99.99
2018-08-12T00:08:28.324Z,98.05
2018-08-12T00:09:28.351Z,97.56
2018-08-12T00:10:28.367Z,99.99
2018-08-12T00:11:28.392Z,99.99
2018-08-12T00:12:28.417Z,99.39
2018-08-12T00:13:28.440Z,98.81
2018-08-12T00:14:28.462Z,96.99
2018-08-12T00:15:28.480Z,99.96
2018-08-12T00:16:28.510Z,99.10
2018-08-12T00:17:28.527Z,99.99
2018-08-12T00:18:28.546Z,98.67
2018-08-12T00:19:28.583Z,99.19
2018-08-12T00:20:28.598Z,95.51
2018-08-12T00:21:28.616Z,99.77
2018-08-12T00:22:28.636Z,95.98
2018-08-12T00:23:28.665Z,96.18
2018-08-12T00:24:28.686Z,98.10
2018-08-12T00:25:28.706Z,97.80
2018-08-12T00:26:28.734Z,96.47
2018-08-12T00:27:28.749Z,99.72
2018-08-12T00:28:28.776Z,98.47
2018-08-12T00:29:28.803Z,98.19
2018-08-12T00:30:28.821Z,99.72
2018-08-12T00:31:28.844Z,98.47
2018-08-12T00:32:28.865Z,98.10
2018-08-12T00:33:28.889Z,97.23
2018-08-12T00:34:28.913Z,97.14
2018-08-12T00:35:28.937Z,99.99
2018-08-12T00:36:28.959Z,98.00
2018-08-12T00:37:28.983Z,98.86
2018-08-12T00:38:29.001Z,97.42
2018-08-12T00:39:29.026Z,98.38
2018-08-12T00:40:29.049Z,94.45
2018-08-12T00:41:29.066Z,96.66
2018-08-12T00:42:29.092Z,98.28
2018-08-12T00:43:29.110Z,98.76
2018-08-12T00:44:29.143Z,96.37
2018-08-12T00:45:29.167Z,97.33
2018-08-12T00:46:29.181Z,97.80
2018-08-12T00:47:29.206Z,98.00
2018-08-12T00:48:29.226Z,96.94
2018-08-12T00:49:29.249Z,96.75
2018-08-12T00:50:29.273Z,95.51
2018-08-12T00:51:29.292Z,96.37
2018-08-12T00:52:29.316Z,96.94
2018-08-12T00:53:29.336Z,97.04
2018-08-12T00:54:29.361Z,98.57
2018-08-12T00:55:29.384Z,97.14
2018-08-12T00:56:29.406Z,97.14
2018-08-12T00:57:29.424Z,97.71
2018-08-12T00:58:29.456Z,96.84
2018-08-12T00:59:29.469Z,97.14
2018-08-12T01:00:29.493Z,99.63
2018-08-12T01:01:29.516Z,99.24
2018-08-12T01:02:29.540Z,97.04
2018-08-12T01:03:29.566Z,96.56
2018-08-12T01:04:29.579Z,96.47
2018-08-12T01:05:29.609Z,98.47
2018-08-12T01:06:29.628Z,99.82
2018-08-12T01:07:29.651Z,99.43
2018-08-12T01:08:29.672Z,95.51
2018-08-12T01:09:29.696Z,97.33
2018-08-12T01:10:29.725Z,98.19
2018-08-12T01:11:29.745Z,98.76
2018-08-12T01:12:29.761Z,99.63
2018-08-12T01:13:29.787Z,99.72
2018-08-12T01:14:29.812Z,98.67
2018-08-12T01:15:29.834Z,99.99
2018-08-12T01:16:29.872Z,99.53
2018-08-12T01:17:29.876Z,98.28
2018-08-12T01:18:29.899Z,95.41
2018-08-12T01:19:29.917Z,96.75
2018-08-12T01:20:29.939Z,97.23
2018-08-12T01:21:29.965Z,97.71
2018-08-12T01:22:29.984Z,99.43
2018-08-12T01:23:30.009Z,99.99
2018-08-12T01:24:30.035Z,99.99
2018-08-12T01:25:30.057Z,99.99
2018-08-12T01:26:30.074Z,99.99
2018-08-12T01:27:30.100Z,99.99
2018-08-12T01:28:30.126Z,99.99
2018-08-12T01:29:30.146Z,99.72
2018-08-12T01:30:30.165Z,99.99
2018-08-12T01:31:30.188Z,99.99
2018-08-12T01:32:30.211Z,99.99
2018-08-12T01:33:30.233Z,98.67
2018-08-12T01:34:30.252Z,99.43
2018-08-12T01:35:30.283Z,99.91
2018-08-12T01:36:30.301Z,99.99
2018-08-12T01:37:30.322Z,99.99
2018-08-12T01:38:30.341Z,99.99
2018-08-12T01:39:30.368Z,99.99
2018-08-12T01:40:30.389Z,98.76
2018-08-12T01:41:30.413Z,99.72
2018-08-12T01:42:30.435Z,98.76
2018-08-12T01:43:30.457Z,99.99
2018-08-12T01:44:30.480Z,99.99
2018-08-12T01:45:30.502Z,99.99
2018-08-12T01:46:30.521Z,98.86
2018-08-12T01:47:30.547Z,99.43
2018-08-12T01:48:30.568Z,99.99
2018-08-12T01:49:30.594Z,99.99
2018-08-12T01:50:30.612Z,99.91
2018-08-12T01:51:30.639Z,99.99
2018-08-12T01:52:30.660Z,99.99
2018-08-12T01:53:30.688Z,99.99
2018-08-12T01:54:30.704Z,99.99
2018-08-12T01:55:30.729Z,99.99
2018-08-12T01:56:30.750Z,99.99
2018-08-12T01:57:30.771Z,99.99
2018-08-12T01:58:30.791Z,99.99
2018-08-12T01:59:30.818Z,99.99
2018-08-12T02:00:30.838Z,99.91
2018-08-12T02:01:30.856Z,99.99
2018-08-12T02:02:30.889Z,99.91
2018-08-12T02:03:30.903Z,99.99
2018-08-12T02:04:30.931Z,99.99
2018-08-12T02:05:30.947Z,99.99
2018-08-12T02:06:30.973Z,99.99
2018-08-12T02:07:30.993Z,99.99
2018-08-12T02:08:31.018Z,99.99
2018-08-12T02:09:31.043Z,99.99
2018-08-12T02:10:31.062Z,99.99
2018-08-12T02:11:31.087Z,99.99
2018-08-12T02:12:31.103Z,99.99
2018-08-12T02:13:31.135Z,99.99
2018-08-12T02:14:31.151Z,99.99
2018-08-12T02:15:31.177Z,99.99
2018-08-12T02:16:31.196Z,99.99
2018-08-12T02:17:31.222Z,99.99
2018-08-12T02:18:31.242Z,99.99
2018-08-12T02:19:31.264Z,99.99
2018-08-12T02:20:31.291Z,99.99
2018-08-12T02:21:31.315Z,99.99
2018-08-12T02:22:31.331Z,99.99
2018-08-12T02:23:31.359Z,99.99
2018-08-12T02:24:31.374Z,99.99
2018-08-12T02:25:31.397Z,99.99
2018-08-12T02:26:31.423Z,99.99
2018-08-12T02:27:31.449Z,99.99
2018-08-12T02:28:31.471Z,99.99
2018-08-12T02:29:31.489Z,99.99
2018-08-12T02:30:31.514Z,99.99
2018-08-12T02:31:31.532Z,99.99
2018-08-12T02:32:31.554Z,99.53
2018-08-12T02:33:31.577Z,99.99
2018-08-12T02:34:31.602Z,99.99
2018-08-12T02:35:31.629Z,99.99
2018-08-12T02:36:31.645Z,99.99
2018-08-12T02:37:31.667Z,99.99
2018-08-12T02:38:31.691Z,99.99
2018-08-12T02:39:31.713Z,99.99
2018-08-12T02:40:31.734Z,99.99
2018-08-12T02:41:31.755Z,99.99
2018-08-12T02:42:31.782Z,99.99
2018-08-12T02:43:31.816Z,99.99
2018-08-12T02:44:31.821Z,99.99
2018-08-12T02:45:31.849Z,99.99
2018-08-12T02:46:31.872Z,99.99
2018-08-12T02:47:31.893Z,99.99
2018-08-12T02:48:31.913Z,99.99
2018-08-12T02:49:31.939Z,99.99
2018-08-12T02:50:31.955Z,99.99
2018-08-12T02:51:31.981Z,99.99
2018-08-12T02:52:32.008Z,99.99
2018-08-12T02:53:32.025Z,99.99
2018-08-12T02:54:32.049Z,99.99
2018-08-12T02:55:32.071Z,99.99
2018-08-12T02:56:32.092Z,99.99
2018-08-12T02:57:32.119Z,99.99
2018-08-12T02:58:32.137Z,99.99
2018-08-12T02:59:32.161Z,99.99
2018-08-12T03:00:32.185Z,99.99
2018-08-12T03:01:32.200Z,99.99
2018-08-12T03:02:32.226Z,99.99
2018-08-12T03:03:32.278Z,99.99
2018-08-12T03:04:32.271Z,99.99
2018-08-12T03:05:32.299Z,99.99
2018-08-12T03:06:32.317Z,99.99
2018-08-12T03:07:32.339Z,99.99
2018-08-12T03:08:32.359Z,99.99
2018-08-12T03:09:32.381Z,99.99
2018-08-12T03:10:32.409Z,99.99
2018-08-12T03:11:32.424Z,99.99
2018-08-12T03:12:32.451Z,99.99
2018-08-12T03:13:32.475Z,99.99
2018-08-12T03:14:32.505Z,99.99
2018-08-12T03:15:32.520Z,99.99
2018-08-12T03:16:32.542Z,99.99
2018-08-12T03:17:32.561Z,99.99
2018-08-12T03:18:32.585Z,99.99
2018-08-12T03:19:32.608Z,99.99
2018-08-12T03:20:32.630Z,99.99
2018-08-12T03:21:32.649Z,99.99
2018-08-12T03:22:32.771Z,99.99
2018-08-12T03:23:32.699Z,99.99
2018-08-12T03:24:32.719Z,99.99
2018-08-12T03:25:32.739Z,99.99
2018-08-12T03:26:32.759Z,99.99
2018-08-12T03:27:32.789Z,99.99
2018-08-12T03:28:32.809Z,99.99
2018-08-12T03:29:32.830Z,99.99
2018-08-12T03:30:32.853Z,99.99
2018-08-12T03:31:32.875Z,99.99
2018-08-12T03:32:32.895Z,99.99
2018-08-12T03:33:32.919Z,99.99
2018-08-12T03:34:32.942Z,99.99
2018-08-12T03:35:32.966Z,99.99
2018-08-12T03:36:32.985Z,99.99
2018-08-12T03:37:33.008Z,99.99
2018-08-12T03:38:33.032Z,99.99
2018-08-12T03:39:33.053Z,99.99
2018-08-12T03:40:33.086Z,99.99
2018-08-12T03:41:33.099Z,99.99
2018-08-12T03:42:33.123Z,99.99
2018-08-12T03:43:33.154Z,99.99
2018-08-12T03:44:33.163Z,99.99
2018-08-12T03:45:33.192Z,99.99
2018-08-12T03:46:33.209Z,99.99
2018-08-12T03:47:33.233Z,99.99
2018-08-12T03:48:33.254Z,99.99
2018-08-12T03:49:33.279Z,99.99
2018-08-12T03:50:33.297Z,99.99
2018-08-12T03:51:33.324Z,99.99
2018-08-12T03:52:33.345Z,99.99
2018-08-12T03:53:33.364Z,99.99
2018-08-12T03:54:33.392Z,99.99
2018-08-12T03:55:33.410Z,99.99
2018-08-12T03:56:33.434Z,99.99
2018-08-12T03:57:33.452Z,99.99
2018-08-12T03:58:33.486Z,99.99
2018-08-12T03:59:33.503Z,99.99
2018-08-12T04:00:33.522Z,99.99
2018-08-12T04:01:33.549Z,99.99
2018-08-12T04:02:33.568Z,99.99
2018-08-12T04:03:33.591Z,99.99
2018-08-12T04:04:33.609Z,99.99
2018-08-12T04:05:33.635Z,99.99
2018-08-12T04:06:33.655Z,99.99
2018-08-12T04:07:33.683Z,99.99
2018-08-12T04:08:33.702Z,99.99
2018-08-12T04:09:33.725Z,99.99
2018-08-12T04:10:33.746Z,99.99
2018-08-12T04:11:33.779Z,99.99
2018-08-12T04:12:33.789Z,99.99
2018-08-12T04:13:33.811Z,99.99
2018-08-12T04:14:33.846Z,99.99
2018-08-12T04:15:33.862Z,99.99
2018-08-12T04:16:33.879Z,99.99
2018-08-12T04:17:33.903Z,99.99
2018-08-12T04:18:33.925Z,99.99
2018-08-12T04:19:33.947Z,99.99
2018-08-12T04:20:33.969Z,99.99
2018-08-12T04:21:33.992Z,99.99
2018-08-12T04:22:34.013Z,99.99
2018-08-12T04:23:34.037Z,99.99
2018-08-12T04:24:34.060Z,99.99
2018-08-12T04:25:34.078Z,99.99
2018-08-12T04:26:34.107Z,99.99
2018-08-12T04:27:34.123Z,99.99
2018-08-12T04:28:34.156Z,99.99
2018-08-12T04:29:34.174Z,99.99
2018-08-12T04:30:34.192Z,99.99
2018-08-12T04:31:34.219Z,99.99
2018-08-12T04:32:34.242Z,99.99
2018-08-12T04:33:34.263Z,99.99
2018-08-12T04:34:34.289Z,99.99
2018-08-12T04:35:34.311Z,99.99
2018-08-12T04:36:34.331Z,99.99
2018-08-12T04:37:34.349Z,99.99
2018-08-12T04:38:34.375Z,99.99
2018-08-12T04:39:34.399Z,99.99
2018-08-12T04:40:34.409Z,99.99
2018-08-12T04:41:34.439Z,99.99
2018-08-12T04:42:34.464Z,99.99
2018-08-12T04:43:34.483Z,99.99
2018-08-12T04:44:34.509Z,99.99
2018-08-12T04:45:34.537Z,99.99
2018-08-12T04:46:34.553Z,99.99
2018-08-12T04:47:34.571Z,99.99
2018-08-12T04:48:34.599Z,99.99
2018-08-12T04:49:34.619Z,99.99
2018-08-12T04:50:34.642Z,99.99
2018-08-12T04:51:34.660Z,99.99
2018-08-12T04:52:34.691Z,99.99
2018-08-12T04:53:34.712Z,99.99
2018-08-12T04:54:34.736Z,99.99
2018-08-12T04:55:34.750Z,99.99
2018-08-12T04:56:34.780Z,99.99
2018-08-12T04:57:34.796Z,99.99
2018-08-12T04:58:34.819Z,99.99
2018-08-12T04:59:34.850Z,99.99
2018-08-12T05:00:34.867Z,99.99
2018-08-12T05:01:34.889Z,99.99
2018-08-12T05:02:34.916Z,99.99
2018-08-12T05:03:34.936Z,99.99
2018-08-12T05:04:34.956Z,99.99
2018-08-12T05:05:34.980Z,99.99
2018-08-12T05:06:35.010Z,99.99
2018-08-12T05:07:35.028Z,99.99
2018-08-12T05:08:35.052Z,99.99
2018-08-12T05:09:35.077Z,99.99
2018-08-12T05:10:35.094Z,99.99
2018-08-12T05:11:35.118Z,99.99
2018-08-12T05:12:35.140Z,99.99
2018-08-12T05:13:35.161Z,99.99
2018-08-12T05:14:35.182Z,99.99
2018-08-12T05:15:35.205Z,99.99
2018-08-12T05:16:35.227Z,99.99
2018-08-12T05:17:35.253Z,99.99
2018-08-12T05:18:35.271Z,99.99
2018-08-12T05:19:35.324Z,99.99
2018-08-12T05:20:35.313Z,99.99
2018-08-12T05:21:35.339Z,99.99
2018-08-12T05:22:35.359Z,99.99
2018-08-12T05:23:35.387Z,99.99
2018-08-12T05:24:35.404Z,99.99
2018-08-12T05:25:35.430Z,99.99
2018-08-12T05:26:35.457Z,99.99
2018-08-12T05:27:35.484Z,99.99
2018-08-12T05:28:35.499Z,99.99
2018-08-12T05:29:35.520Z,99.99
2018-08-12T05:30:35.542Z,99.99
2018-08-12T05:31:35.566Z,99.99
2018-08-12T05:32:35.589Z,99.99
2018-08-12T05:33:35.610Z,99.99
2018-08-12T05:34:35.636Z,99.99
2018-08-12T05:35:35.653Z,99.99
2018-08-12T05:36:35.677Z,99.99
2018-08-12T05:37:35.703Z,99.99
2018-08-12T05:38:35.728Z,99.99
2018-08-12T05:39:35.749Z,99.99
2018-08-12T05:40:35.773Z,99.99
2018-08-12T05:41:35.798Z,99.99
2018-08-12T05:42:35.821Z,99.99
2018-08-12T05:43:35.839Z,99.99
2018-08-12T05:44:35.862Z,99.99
2018-08-12T05:45:35.885Z,99.99
2018-08-12T05:46:35.906Z,99.99
2018-08-12T05:47:35.932Z,99.99
2018-08-12T05:48:35.954Z,99.99
2018-08-12T05:49:35.974Z,99.99
2018-08-12T05:50:35.998Z,99.99
2018-08-12T05:51:36.157Z,99.99
2018-08-12T05:52:36.040Z,99.99
2018-08-12T05:53:36.066Z,99.99
2018-08-12T05:54:36.089Z,99.99
2018-08-12T05:55:36.109Z,99.99
2018-08-12T05:56:36.137Z,99.99
2018-08-12T05:57:36.154Z,99.99
2018-08-12T05:58:36.180Z,99.99
2018-08-12T05:59:36.210Z,99.99
2018-08-12T06:00:36.228Z,99.99
2018-08-12T06:01:36.250Z,99.99
2018-08-12T06:02:36.322Z,99.99
2018-08-12T06:03:36.293Z,99.99
2018-08-12T06:04:36.320Z,99.99
2018-08-12T06:05:36.342Z,99.99
2018-08-12T06:06:36.362Z,99.99
2018-08-12T06:07:36.389Z,99.99
2018-08-12T06:08:36.410Z,99.99
2018-08-12T06:09:36.435Z,99.99
2018-08-12T06:10:36.458Z,99.99
2018-08-12T06:11:36.477Z,99.99
2018-08-12T06:12:36.500Z,99.99
2018-08-12T06:13:36.524Z,99.99
2018-08-12T06:14:36.542Z,99.99
2018-08-12T06:15:36.600Z,99.99
2018-08-12T06:16:36.594Z,99.99
2018-08-12T06:17:36.616Z,99.99
2018-08-12T06:18:36.635Z,99.99
2018-08-12T06:19:36.659Z,99.99
2018-08-12T06:20:36.682Z,99.99
2018-08-12T06:21:36.706Z,99.99
2018-08-12T06:22:36.731Z,99.99
2018-08-12T06:23:36.756Z,99.99
2018-08-12T06:24:36.774Z,99.99
2018-08-12T06:25:36.816Z,99.99
2018-08-12T06:26:36.818Z,99.99
2018-08-12T06:27:36.842Z,99.99
2018-08-12T06:28:36.867Z,99.99
2018-08-12T06:29:36.889Z,99.99
2018-08-12T06:30:36.913Z,99.99
2018-08-12T06:31:36.997Z,99.99
2018-08-12T06:32:36.955Z,99.99
2018-08-12T06:33:36.981Z,99.99
2018-08-12T06:34:37.007Z,99.99
2018-08-12T06:35:37.028Z,99.99
2018-08-12T06:36:37.051Z,99.99
2018-08-12T06:37:37.072Z,99.99
2018-08-12T06:38:37.094Z,99.99
2018-08-12T06:39:37.120Z,99.99
2018-08-12T06:40:37.143Z,99.99
2018-08-12T06:41:37.165Z,99.99
2018-08-12T06:42:37.190Z,99.99
2018-08-12T06:43:37.217Z,99.99
2018-08-12T06:44:37.235Z,99.99
2018-08-12T06:45:37.291Z,99.99
2018-08-12T06:46:37.283Z,99.99
2018-08-12T06:47:37.300Z,99.99
2018-08-12T06:48:37.327Z,99.99
2018-08-12T06:49:37.350Z,99.99
2018-08-12T06:50:37.376Z,99.99
2018-08-12T06:51:37.421Z,99.99
2018-08-12T06:52:37.417Z,99.99
2018-08-12T06:53:37.441Z,99.99
2018-08-12T06:54:37.469Z,99.99
2018-08-12T06:55:37.488Z,99.99
2018-08-12T06:56:37.519Z,99.99
2018-08-12T06:57:37.550Z,99.99
2018-08-12T06:58:37.566Z,99.99
2018-08-12T06:59:37.581Z,99.99
2018-08-12T07:00:37.609Z,99.99
2018-08-12T07:01:37.637Z,99.99
2018-08-12T07:02:37.656Z,99.99
2018-08-12T07:03:37.681Z,99.99
2018-08-12T07:04:37.697Z,99.99
2018-08-12T07:05:37.720Z,99.99
2018-08-12T07:06:37.755Z,99.99
2018-08-12T07:07:37.776Z,99.99
2018-08-12T07:08:37.789Z,99.99
2018-08-12T07:09:37.812Z,99.99
2018-08-12T07:10:37.837Z,99.99
2018-08-12T07:11:37.862Z,99.99
2018-08-12T07:12:37.889Z,99.99
2018-08-12T07:13:37.907Z,99.99
2018-08-12T07:14:37.935Z,99.99
2018-08-12T07:15:37.954Z,99.99
2018-08-12T07:16:37.976Z,99.99
2018-08-12T07:17:38.002Z,99.99
2018-08-12T07:18:38.026Z,99.99
2018-08-12T07:19:38.046Z,99.99
2018-08-12T07:20:38.071Z,99.99
2018-08-12T07:21:38.100Z,99.99
2018-08-12T07:22:38.116Z,99.99
2018-08-12T07:23:38.144Z,99.99
2018-08-12T07:24:38.176Z,99.99
2018-08-12T07:25:38.189Z,99.99
2018-08-12T07:26:38.213Z,99.99
2018-08-12T07:27:38.243Z,99.99
2018-08-12T07:28:38.265Z,99.99
2018-08-12T07:29:38.290Z,99.68
2018-08-12T07:30:38.308Z,99.29
2018-08-12T07:31:38.332Z,98.24
2018-08-12T07:32:38.358Z,99.05
2018-08-12T07:33:38.376Z,99.92
2018-08-12T07:34:38.400Z,98.48
2018-08-12T07:35:38.424Z,96.85
2018-08-12T07:36:38.448Z,95.70
2018-08-12T07:37:38.472Z,96.27
2018-08-12T07:38:38.548Z,97.52
2018-08-12T07:39:38.520Z,96.66
2018-08-12T07:40:38.538Z,97.91
2018-08-12T07:41:38.568Z,99.99
2018-08-12T07:42:38.589Z,98.10
2018-08-12T07:43:38.610Z,97.71
2018-08-12T07:44:38.639Z,97.81
2018-08-12T07:45:38.658Z,99.97
2018-08-12T07:46:38.684Z,96.80
2018-08-12T07:47:38.713Z,93.82
2018-08-12T07:48:38.742Z,93.25
2018-08-12T07:49:38.755Z,93.82
2018-08-12T07:50:38.776Z,94.11
2018-08-12T07:51:38.807Z,96.99
2018-08-12T07:52:38.832Z,98.39
2018-08-12T07:53:38.851Z,95.89
2018-08-12T07:54:38.877Z,93.87
2018-08-12T07:55:38.946Z,92.81
2018-08-12T07:56:38.925Z,90.41
2018-08-12T07:57:38.949Z,92.19
2018-08-12T07:58:38.971Z,91.99
2018-08-12T07:59:38.997Z,89.78
2018-08-12T08:00:39.017Z,85.46
2018-08-12T08:01:39.045Z,83.58
2018-08-12T08:02:39.072Z,83.48
2018-08-12T08:03:39.094Z,86.85
2018-08-12T08:04:39.120Z,89.15
2018-08-12T08:05:39.146Z,85.69
2018-08-12T08:06:39.178Z,81.56
2018-08-12T08:07:39.203Z,82.71
2018-08-12T08:08:39.226Z,80.50
2018-08-12T08:09:39.243Z,82.94
2018-08-12T08:10:39.270Z,81.50
2018-08-12T08:11:39.300Z,77.51
2018-08-12T08:12:39.363Z,77.33
2018-08-12T08:13:39.354Z,78.77
2018-08-12T08:14:39.369Z,77.23
2018-08-12T08:15:39.400Z,76.65
2018-08-12T08:16:39.427Z,80.15
2018-08-12T08:17:39.450Z,76.59
2018-08-12T08:18:39.472Z,76.59
2018-08-12T08:19:39.501Z,80.15
2018-08-12T08:20:39.523Z,77.33
2018-08-12T08:21:39.548Z,75.59
2018-08-12T08:22:39.580Z,76.56
2018-08-12T08:23:39.601Z,74.48
2018-08-12T08:24:39.627Z,75.54
2018-08-12T08:25:39.718Z,73.71
2018-08-12T08:26:39.686Z,73.32
2018-08-12T08:27:39.702Z,74.48
2018-08-12T08:28:39.732Z,76.69
2018-08-12T08:29:39.760Z,74.86
2018-08-12T08:30:39.784Z,73.99
2018-08-12T08:31:39.986Z,73.03
2018-08-12T08:32:39.834Z,72.39
2018-08-12T08:33:39.860Z,73.65
2018-08-12T08:34:39.896Z,72.97
2018-08-12T08:35:39.914Z,74.22
2018-08-12T08:36:39.939Z,76.25
2018-08-12T08:37:39.960Z,75.67
2018-08-12T08:38:39.989Z,74.32
2018-08-12T08:39:40.020Z,75.38
2018-08-12T08:40:40.044Z,70.86
2018-08-12T08:41:40.068Z,70.18
2018-08-12T08:42:40.098Z,68.51
2018-08-12T08:43:40.120Z,67.97
2018-08-12T08:44:40.147Z,67.97
2018-08-12T08:45:40.176Z,66.71
2018-08-12T08:46:40.196Z,67.68
2018-08-12T08:47:40.226Z,69.89
2018-08-12T08:48:40.250Z,67.10
2018-08-12T08:49:40.278Z,66.62
2018-08-12T08:50:40.361Z,67.49
2018-08-12T08:51:40.356Z,67.97
2018-08-12T08:52:40.354Z,68.16
2018-08-12T08:53:40.388Z,69.02
2018-08-12T08:54:40.410Z,75.48
2018-08-12T08:55:40.501Z,70.76
2018-08-12T08:56:40.457Z,69.60
2018-08-12T08:57:40.487Z,68.44
2018-08-12T08:58:40.520Z,67.68
2018-08-12T08:59:40.538Z,69.12
2018-08-12T09:00:40.567Z,69.25
2018-08-12T09:01:40.590Z,68.48
2018-08-12T09:02:40.619Z,70.79
2018-08-12T09:03:40.648Z,68.10
2018-08-12T09:04:40.670Z,66.17
2018-08-12T09:05:40.694Z,65.30
2018-08-12T09:06:40.726Z,66.62
2018-08-12T09:07:40.751Z,69.12
2018-08-12T09:08:41.106Z,65.85
2018-08-12T09:09:40.802Z,64.98
2018-08-12T09:10:40.831Z,65.17
2018-08-12T09:11:40.872Z,65.63
2018-08-12T09:12:40.885Z,65.91
2018-08-12T09:13:40.909Z,66.01
2018-08-12T09:14:40.929Z,67.16
2018-08-12T09:15:40.960Z,68.51
2018-08-12T09:16:40.990Z,67.45
2018-08-12T09:17:41.012Z,68.99
2018-08-12T09:18:41.041Z,67.74
2018-08-12T09:19:41.067Z,69.02
2018-08-12T09:20:41.099Z,70.09
2018-08-12T09:21:41.126Z,69.79
2018-08-12T09:22:41.142Z,70.76
2018-08-12T09:23:41.173Z,67.68
2018-08-12T09:24:41.200Z,66.14
2018-08-12T09:25:41.222Z,67.19
2018-08-12T09:26:41.249Z,66.52
2018-08-12T09:27:41.311Z,67.58
2018-08-12T09:28:41.297Z,67.10
2018-08-12T09:29:41.323Z,67.68
2018-08-12T09:30:41.348Z,67.68
2018-08-12T09:31:41.377Z,66.24
2018-08-12T09:32:41.401Z,65.37
2018-08-12T09:33:41.433Z,65.46
2018-08-12T09:34:41.456Z,66.42
2018-08-12T09:35:41.487Z,67.23
2018-08-12T09:36:41.507Z,64.73
2018-08-12T09:37:41.529Z,64.08
2018-08-12T09:38:41.562Z,62.45
2018-08-12T09:39:41.588Z,62.45
2018-08-12T09:40:41.610Z,62.18
2018-08-12T09:41:41.634Z,61.71
2018-08-12T09:42:41.667Z,61.71
2018-08-12T09:43:41.693Z,60.06
2018-08-12T09:44:41.718Z,59.78
2018-08-12T09:45:41.741Z,60.00
2018-08-12T09:46:41.772Z,59.52
2018-08-12T09:47:41.795Z,60.13
2018-08-12T09:48:41.850Z,60.31
2018-08-12T09:49:41.845Z,58.58
2018-08-12T09:50:41.878Z,58.22
2018-08-12T09:51:42.075Z,56.77
2018-08-12T09:52:41.925Z,55.42
2018-08-12T09:53:41.955Z,56.94
2018-08-12T09:54:41.986Z,55.23
2018-08-12T09:55:42.010Z,57.52
2018-08-12T09:56:42.044Z,56.74
2018-08-12T09:57:42.063Z,55.52
2018-08-12T09:58:42.098Z,56.46
2018-08-12T09:59:42.124Z,55.68
2018-08-12T10:00:42.144Z,55.62
2018-08-12T10:01:42.176Z,54.84
2018-08-12T10:02:42.204Z,53.49
2018-08-12T10:03:42.232Z,53.23
2018-08-12T10:04:42.256Z,55.55
2018-08-12T10:05:42.285Z,54.77
2018-08-12T10:06:42.317Z,54.68
2018-08-12T10:07:42.345Z,53.55
2018-08-12T10:08:42.376Z,55.33
2018-08-12T10:09:42.401Z,54.27
2018-08-12T10:10:42.423Z,53.01
2018-08-12T10:11:42.454Z,53.78
2018-08-12T10:12:42.483Z,53.11
2018-08-12T10:13:42.507Z,53.97
2018-08-12T10:14:42.537Z,56.10
2018-08-12T10:15:42.642Z,54.46
2018-08-12T10:16:42.594Z,54.17
2018-08-12T10:17:42.623Z,53.20
2018-08-12T10:18:42.655Z,56.77
2018-08-12T10:19:42.678Z,56.39
2018-08-12T10:20:42.707Z,56.22
2018-08-12T10:21:42.735Z,56.61
2018-08-12T10:22:42.765Z,53.97
2018-08-12T10:23:42.797Z,53.03
2018-08-12T10:24:42.820Z,53.71
2018-08-12T10:25:42.851Z,53.61
2018-08-12T10:26:42.875Z,53.71
2018-08-12T10:27:42.907Z,53.83
2018-08-12T10:28:42.936Z,53.91
2018-08-12T10:29:42.958Z,55.65
2018-08-12T10:30:42.990Z,57.09
2018-08-12T10:31:43.014Z,56.51
2018-08-12T10:32:43.056Z,53.33
2018-08-12T10:33:43.082Z,54.77
2018-08-12T10:34:43.104Z,54.49
2018-08-12T10:35:43.132Z,54.19
2018-08-12T10:36:43.160Z,53.13
2018-08-12T10:37:43.185Z,54.10
2018-08-12T10:38:43.217Z,53.49
2018-08-12T10:39:43.246Z,56.10
2018-08-12T10:40:43.269Z,53.69
2018-08-12T10:41:43.300Z,53.52
2018-08-12T10:42:43.331Z,53.69
2018-08-12T10:43:43.356Z,53.42
2018-08-12T10:44:43.380Z,54.29
2018-08-12T10:45:43.412Z,52.87
2018-08-12T10:46:43.440Z,55.26
2018-08-12T10:47:43.468Z,57.06
2018-08-12T10:48:43.494Z,57.54
2018-08-12T10:49:43.524Z,56.68
2018-08-12T10:50:43.562Z,56.68
2018-08-12T10:51:43.582Z,59.00
2018-08-12T10:52:43.608Z,57.06
2018-08-12T10:53:43.639Z,57.57
2018-08-12T10:54:43.664Z,57.57
2018-08-12T10:55:43.693Z,55.47
2018-08-12T10:56:43.720Z,54.35
2018-08-12T10:57:43.750Z,52.51
2018-08-12T10:58:43.772Z,51.35
2018-08-12T10:59:43.802Z,52.89
2018-08-12T11:00:43.837Z,54.61
2018-08-12T11:01:43.864Z,54.41
2018-08-12T11:02:43.891Z,55.45
2018-08-12T11:03:43.925Z,54.29
2018-08-12T11:04:43.951Z,53.11
2018-08-12T11:05:43.975Z,53.42
2018-08-12T11:06:44.003Z,55.47
2018-08-12T11:07:44.031Z,53.13
2018-08-12T11:08:44.060Z,53.23
2018-08-12T11:09:44.095Z,53.06
2018-08-12T11:10:44.124Z,52.77
2018-08-12T11:11:44.143Z,52.02
2018-08-12T11:12:44.247Z,51.66
2018-08-12T11:13:44.206Z,52.63
2018-08-12T11:14:44.232Z,52.12
2018-08-12T11:15:44.262Z,51.23
2018-08-12T11:16:44.287Z,51.87
2018-08-12T11:17:44.321Z,51.97
2018-08-12T11:18:44.347Z,52.53
2018-08-12T11:19:44.377Z,55.10
2018-08-12T11:20:44.410Z,55.01
2018-08-12T11:21:44.429Z,54.72
2018-08-12T11:22:44.462Z,55.10
2018-08-12T11:23:44.495Z,55.88
2018-08-12T11:24:44.511Z,57.90
2018-08-12T11:25:44.551Z,56.43
2018-08-12T11:26:44.586Z,57.62
2018-08-12T11:27:44.597Z,56.84
2018-08-12T11:28:44.623Z,58.94
2018-08-12T11:29:44.652Z,61.74
2018-08-12T11:30:44.683Z,60.77
2018-08-12T11:31:44.715Z,58.84
2018-08-12T11:32:44.739Z,61.90
2018-08-12T11:33:44.762Z,61.99
2018-08-12T11:34:44.806Z,60.26
2018-08-12T11:35:44.820Z,61.13
2018-08-12T11:36:44.841Z,63.15
2018-08-12T11:37:44.875Z,62.96
2018-08-12T11:38:44.893Z,61.90
2018-08-12T11:39:44.923Z,60.96
2018-08-12T11:40:44.960Z,62.99
2018-08-12T11:41:44.979Z,58.65
2018-08-12T11:42:45.013Z,59.42
2018-08-12T11:43:45.036Z,59.23
2018-08-12T11:44:45.064Z,56.62
2018-08-12T11:45:45.095Z,59.03
2018-08-12T11:46:45.113Z,60.61
2018-08-12T11:47:45.144Z,57.01
2018-08-12T11:48:45.169Z,56.65
2018-08-12T11:49:45.196Z,55.98
2018-08-12T11:50:45.220Z,55.33
2018-08-12T11:51:45.251Z,53.88
2018-08-12T11:52:45.281Z,54.27
2018-08-12T11:53:45.303Z,54.36
2018-08-12T11:54:45.325Z,56.29
2018-08-12T11:55:45.362Z,55.23
2018-08-12T11:56:45.385Z,53.30
2018-08-12T11:57:45.413Z,55.07
2018-08-12T11:58:45.442Z,53.42
2018-08-12T11:59:45.465Z,56.03
2018-08-12T12:00:45.497Z,56.96
2018-08-12T12:01:45.528Z,55.23
2018-08-12T12:02:45.546Z,54.29
2018-08-12T12:03:45.574Z,54.77
2018-08-12T12:04:45.610Z,53.71
2018-08-12T12:05:45.633Z,54.68
2018-08-12T12:06:45.656Z,54.32
2018-08-12T12:07:45.687Z,53.42
2018-08-12T12:08:45.714Z,53.61
2018-08-12T12:09:45.742Z,53.91
2018-08-12T12:10:45.771Z,54.68
2018-08-12T12:11:45.798Z,55.57
2018-08-12T12:12:45.822Z,55.57
2018-08-12T12:13:45.854Z,54.41
2018-08-12T12:14:45.878Z,52.29
2018-08-12T12:15:45.906Z,51.81
2018-08-12T12:16:45.935Z,53.64
2018-08-12T12:17:45.967Z,54.13
2018-08-12T12:18:45.998Z,54.22
2018-08-12T12:19:46.036Z,54.15
2018-08-12T12:20:46.048Z,52.80
2018-08-12T12:21:46.081Z,52.34
2018-08-12T12:22:46.104Z,50.92
2018-08-12T12:23:46.131Z,48.97
2018-08-12T12:24:46.155Z,48.61
2018-08-12T12:25:46.189Z,53.33
2018-08-12T12:26:46.223Z,52.05
2018-08-12T12:27:46.242Z,52.41
2018-08-12T12:28:46.276Z,52.99
2018-08-12T12:29:46.307Z,52.51
2018-08-12T12:30:46.329Z,52.31
2018-08-12T12:31:46.359Z,51.93
2018-08-12T12:32:46.389Z,51.61
2018-08-12T12:33:46.414Z,52.19
2018-08-12T12:34:46.450Z,51.71
2018-08-12T12:35:46.475Z,51.54
2018-08-12T12:36:46.507Z,52.12
2018-08-12T12:37:46.534Z,55.02
2018-08-12T12:38:46.570Z,54.22
2018-08-12T12:39:46.590Z,54.99
2018-08-12T12:40:46.621Z,54.41
2018-08-12T12:41:46.652Z,57.05
2018-08-12T12:42:46.734Z,54.05
2018-08-12T12:43:46.704Z,53.09
2018-08-12T12:44:46.733Z,54.22
2018-08-12T12:45:46.768Z,57.03
2018-08-12T12:46:46.798Z,55.09
2018-08-12T12:47:46.818Z,53.74
2018-08-12T12:48:46.854Z,55.77
2018-08-12T12:49:46.884Z,56.67
2018-08-12T12:50:46.906Z,53.79
2018-08-12T12:51:46.939Z,52.14
2018-08-12T12:52:46.961Z,52.80